Mary's Harbour, Canada
Current Conditions -  °F | °C
As of 7:00 AM on Monday 22 Dec 2014 (Local Time) from CYMH Reporting Station
Clear Clear  
Wind Chill: -4°   Ceiling: Unl
Heat Index:   Visibility: 9mi
Dew Point:   Wind: 5mph
Humidity: 85%   Direction: 250°WSW
Pressure: 30.42"   Gusts: NA
Location:  52.31°N, 55.84°W
Report Text: CYMH 221100Z AUTO 25004KT 9SM CLR M15/M17 A3042 RMK SLP302
Loading
Personal Weather Stations






























Interactive Weather Map New forecast layout! Learn more

10-Day Weather Forecast

Advertisements
Track Severe Weather on mobile